Time;durP1;ratioP1;P1;durP2;ratioP2;P2;SDS_P1;SDS_P2;PMS_P1;PMS_P2;Temp;Humidity;BMP_temperature;BMP_pressure;BME280_temperature;BME280_humidity;BME280_pressure;Samples;Min_cycle;Max_cycle;Signal;HPM_P1;HPM_P2
2022/05/15 00:02:12;;;;;;;25.45;7.65;;;16.10;99.10;;;;;;7339539;19;108100;-82
2022/05/15 00:04:39;;;;;;;29.33;7.80;;;16.00;99.00;;;;;;7338133;19;108981;-82
2022/05/15 00:07:07;;;;;;;22.13;7.72;;;16.00;99.10;;;;;;7341938;19;109071;-82
2022/05/15 00:09:35;;;;;;;26.90;7.30;;;16.00;99.10;;;;;;7340505;19;110838;-82
2022/05/15 00:12:05;;;;;;;31.60;8.57;;;15.90;99.30;;;;;;7338987;19;107739;-82
2022/05/15 00:14:33;;;;;;;25.83;7.85;;;15.90;99.20;;;;;;7337460;19;108989;-82
2022/05/15 00:17:00;;;;;;;30.23;9.23;;;15.90;99.50;;;;;;7339577;19;108314;-82
2022/05/15 00:19:28;;;;;;;26.65;8.90;;;15.80;99.40;;;;;;7339330;19;108675;-82
2022/05/15 00:21:55;;;;;;;26.73;8.32;;;15.80;99.50;;;;;;7343461;19;109590;-82
2022/05/15 00:24:22;;;;;;;30.73;8.68;;;15.70;99.60;;;;;;7337845;19;111221;-83
2022/05/15 00:26:49;;;;;;;29.50;8.38;;;15.70;99.70;;;;;;7338707;19;108106;-82
2022/05/15 00:29:16;;;;;;;33.60;7.93;;;15.70;99.70;;;;;;7338671;19;108073;-82
2022/05/15 00:31:43;;;;;;;26.40;8.48;;;15.60;99.80;;;;;;7337230;19;108626;-82
2022/05/15 00:34:10;;;;;;;27.30;8.68;;;15.70;99.90;;;;;;7336940;19;108143;-82
2022/05/15 00:36:38;;;;;;;31.40;8.77;;;15.60;99.90;;;;;;7337199;19;108040;-82
2022/05/15 00:39:06;;;;;;;35.35;8.43;;;15.60;99.90;;;;;;7339608;19;108693;-82
2022/05/15 00:41:34;;;;;;;27.85;8.20;;;15.50;99.90;;;;;;7339342;19;109045;-82
2022/05/15 00:44:02;;;;;;;31.20;8.18;;;15.50;99.90;;;;;;7343365;19;107364;-82
2022/05/15 00:46:33;;;;;;;25.25;7.65;;;15.50;99.90;;;;;;7337037;19;112241;-82
2022/05/15 00:49:05;;;;;;;28.88;7.75;;;15.40;99.90;;;;;;7337821;19;107989;-82
2022/05/15 00:51:38;;;;;;;21.83;7.80;;;15.40;99.90;;;;;;7336378;19;108486;-82
2022/05/15 00:54:29;;;;;;;24.10;7.32;;;15.40;99.90;;;;;;7338345;19;112146;-83
2022/05/15 00:57:04;;;;;;;27.15;8.25;;;15.40;99.90;;;;;;7335412;19;107958;-82
2022/05/15 00:59:37;;;;;;;29.65;8.27;;;15.40;99.90;;;;;;7335994;19;108639;-83
2022/05/15 01:02:04;;;;;;;29.30;8.35;;;15.30;99.90;;;;;;7337990;19;108894;-82
2022/05/15 01:04:32;;;;;;;24.02;7.95;;;15.30;99.90;;;;;;7343438;19;108197;-82
2022/05/15 01:07:01;;;;;;;33.33;8.10;;;15.30;99.90;;;;;;7338174;19;110808;-82
2022/05/15 01:09:29;;;;;;;21.75;7.18;;;15.40;99.90;;;;;;7338185;19;111739;-82
2022/05/15 01:11:57;;;;;;;28.27;8.00;;;15.40;99.90;;;;;;7339921;19;110685;-82
2022/05/15 01:14:25;;;;;;;31.05;7.93;;;15.30;99.90;;;;;;7344876;19;108928;-82
2022/05/15 01:16:52;;;;;;;26.20;7.93;;;15.30;99.90;;;;;;7342563;19;107704;-82
2022/05/15 01:19:37;;;;;;;32.63;7.57;;;15.20;99.90;;;;;;7344612;19;108752;-83
2022/05/15 01:22:06;;;;;;;34.45;7.90;;;15.20;99.90;;;;;;7344576;19;109365;-82
2022/05/15 01:24:33;;;;;;;24.45;7.63;;;15.20;99.90;;;;;;7344688;19;111186;-82
2022/05/15 01:27:07;;;;;;;24.35;7.97;;;15.20;99.90;;;;;;7349457;19;108163;-82
2022/05/15 01:29:40;;;;;;;24.58;7.68;;;15.10;99.90;;;;;;7342510;19;107836;-82
2022/05/15 01:32:08;;;;;;;30.38;8.70;;;15.10;99.90;;;;;;7341973;19;108255;-82
2022/05/15 01:34:35;;;;;;;24.52;7.53;;;15.00;99.90;;;;;;7340038;19;108986;-82
2022/05/15 01:37:02;;;;;;;26.77;7.80;;;15.10;99.90;;;;;;7342057;19;107974;-82
2022/05/15 01:39:30;;;;;;;30.45;8.18;;;15.00;99.90;;;;;;7343909;19;108633;-82
2022/05/15 01:41:57;;;;;;;31.73;8.82;;;14.90;99.90;;;;;;7342512;19;108709;-82
2022/05/15 01:44:25;;;;;;;32.60;8.05;;;14.90;99.90;;;;;;7340172;19;107801;-82
2022/05/15 01:46:53;;;;;;;24.63;8.05;;;14.90;99.90;;;;;;7345089;19;108652;-82
2022/05/15 01:49:20;;;;;;;31.88;7.70;;;14.80;99.90;;;;;;7349662;19;109295;-82
2022/05/15 01:51:47;;;;;;;25.17;8.00;;;14.80;99.90;;;;;;7342605;19;107632;-82
2022/05/15 01:54:15;;;;;;;28.08;7.93;;;14.80;99.90;;;;;;7341245;19;109290;-82
2022/05/15 01:56:42;;;;;;;29.30;7.93;;;14.70;99.90;;;;;;7342836;19;108539;-82
2022/05/15 01:59:10;;;;;;;28.52;8.32;;;14.70;99.90;;;;;;7343366;19;107588;-82
2022/05/15 02:01:37;;;;;;;25.55;7.40;;;14.60;99.90;;;;;;7343106;19;109042;-82
2022/05/15 02:04:07;;;;;;;28.55;7.75;;;14.60;99.90;;;;;;7340943;19;109451;-82
2022/05/15 02:06:35;;;;;;;26.50;7.63;;;14.60;99.90;;;;;;7339056;19;108492;-82
2022/05/15 02:09:04;;;;;;;29.00;8.02;;;14.50;99.90;;;;;;7341445;19;108949;-82
2022/05/15 02:11:32;;;;;;;30.85;8.07;;;14.50;99.90;;;;;;7345789;19;107655;-82
2022/05/15 02:14:00;;;;;;;31.08;7.88;;;14.50;99.90;;;;;;7342304;19;109444;-82
2022/05/15 02:16:27;;;;;;;28.77;7.28;;;14.50;99.90;;;;;;7340860;19;111210;-82
2022/05/15 02:18:54;;;;;;;25.65;7.32;;;14.40;99.90;;;;;;7342906;19;107983;-82
2022/05/15 02:21:22;;;;;;;26.70;7.95;;;14.40;99.90;;;;;;7341717;19;110137;-82
2022/05/15 02:23:49;;;;;;;30.92;7.78;;;14.40;99.90;;;;;;7340681;19;111435;-82
2022/05/15 02:26:17;;;;;;;32.30;7.72;;;14.40;99.90;;;;;;7339300;19;108174;-82
2022/05/15 02:28:44;;;;;;;25.90;8.05;;;14.30;99.90;;;;;;7341616;19;109136;-82
2022/05/15 02:31:11;;;;;;;22.08;7.63;;;14.40;99.90;;;;;;7339586;19;108608;-82
2022/05/15 02:33:38;;;;;;;29.02;7.38;;;14.30;99.90;;;;;;7345818;19;108386;-82
2022/05/15 02:36:06;;;;;;;29.75;8.07;;;14.30;99.90;;;;;;7341515;19;107569;-82
2022/05/15 02:38:33;;;;;;;26.33;7.80;;;14.30;99.90;;;;;;7341171;19;112287;-82
2022/05/15 02:41:00;;;;;;;25.83;7.90;;;14.30;99.90;;;;;;7341667;19;108859;-82
2022/05/15 02:43:27;;;;;;;25.95;8.07;;;14.30;99.90;;;;;;7342888;19;108096;-82
2022/05/15 02:45:54;;;;;;;28.45;7.78;;;14.30;99.90;;;;;;7338544;19;110337;-82
2022/05/15 02:51:08;;;;;;;23.00;7.35;;;14.30;99.90;;;;;;7341642;19;108457;-82
2022/05/15 02:53:41;;;;;;;20.77;7.60;;;14.30;99.90;;;;;;7345822;19;108468;-82
2022/05/15 02:56:16;;;;;;;26.70;7.20;;;14.30;99.90;;;;;;7341065;19;107633;-81
2022/05/15 02:58:43;;;;;;;25.00;7.53;;;14.30;99.90;;;;;;7339665;19;108195;-82
2022/05/15 03:01:11;;;;;;;27.88;7.25;;;14.20;99.90;;;;;;7342308;19;109403;-82
2022/05/15 03:03:38;;;;;;;38.47;8.07;;;14.10;99.90;;;;;;7341775;19;108100;-82
2022/05/15 03:06:07;;;;;;;28.92;8.50;;;14.00;99.90;;;;;;7341189;19;107745;-82
2022/05/15 03:08:36;;;;;;;30.17;7.93;;;14.00;99.90;;;;;;7341521;19;108812;-82
2022/05/15 03:11:03;;;;;;;23.15;7.75;;;14.00;99.90;;;;;;7338728;19;107768;-82
2022/05/15 03:13:30;;;;;;;24.35;7.45;;;13.90;99.90;;;;;;7341370;19;108797;-82
2022/05/15 03:15:58;;;;;;;36.35;8.48;;;13.90;99.90;;;;;;7343877;19;109037;-81
2022/05/15 03:18:25;;;;;;;27.27;7.78;;;13.90;99.90;;;;;;7339774;19;110115;-82
2022/05/15 03:20:52;;;;;;;31.17;7.97;;;13.90;99.90;;;;;;7339482;19;109010;-82
2022/05/15 03:23:19;;;;;;;35.05;8.35;;;13.90;99.90;;;;;;7342254;19;107379;-82
2022/05/15 03:25:46;;;;;;;26.40;7.35;;;13.90;99.90;;;;;;7340273;19;108464;-82
2022/05/15 03:28:13;;;;;;;30.00;7.28;;;14.00;99.90;;;;;;7338982;19;109865;-82
2022/05/15 03:30:43;;;;;;;22.38;7.32;;;14.10;99.90;;;;;;7340313;19;107085;-82
2022/05/15 03:33:10;;;;;;;28.10;7.45;;;14.20;99.90;;;;;;7338340;19;107677;-82
2022/05/15 03:35:38;;;;;;;25.52;7.78;;;14.20;99.90;;;;;;7341594;19;108066;-81
2022/05/15 03:38:06;;;;;;;28.23;7.78;;;14.20;99.90;;;;;;7344032;19;107639;-81
2022/05/15 03:40:34;;;;;;;24.48;7.95;;;14.20;99.90;;;;;;7338921;19;108107;-82
2022/05/15 03:43:01;;;;;;;26.63;7.07;;;14.10;99.90;;;;;;7340608;19;108923;-82
2022/05/15 03:45:29;;;;;;;28.83;8.38;;;14.10;99.90;;;;;;7338088;19;108060;-82
2022/05/15 03:47:56;;;;;;;28.00;7.88;;;14.00;99.90;;;;;;7340884;19;109195;-82
2022/05/15 03:50:26;;;;;;;24.67;7.80;;;14.00;99.90;;;;;;7338215;19;107803;-82
2022/05/15 03:52:54;;;;;;;30.48;8.52;;;14.00;99.90;;;;;;7339927;19;107973;-81
2022/05/15 03:55:21;;;;;;;32.80;8.05;;;14.00;99.90;;;;;;7340251;19;109401;-82
2022/05/15 03:57:55;;;;;;;28.63;7.38;;;14.00;99.90;;;;;;7340213;19;111399;-82
2022/05/15 04:00:23;;;;;;;29.42;8.02;;;14.00;99.90;;;;;;7343772;19;108408;-82
2022/05/15 04:02:50;;;;;;;34.03;8.18;;;13.90;99.90;;;;;;7340166;19;107838;-82
2022/05/15 04:05:18;;;;;;;27.08;7.55;;;13.90;99.90;;;;;;7337973;19;107328;-82
2022/05/15 04:07:47;;;;;;;24.02;7.40;;;13.90;99.90;;;;;;7338875;19;108930;-82
2022/05/15 04:10:16;;;;;;;30.25;7.72;;;13.90;99.90;;;;;;7336394;19;108501;-82
2022/05/15 04:12:44;;;;;;;28.33;8.52;;;13.90;99.90;;;;;;7339270;19;108956;-81
2022/05/15 04:15:13;;;;;;;24.92;7.72;;;13.80;99.90;;;;;;7337163;19;108993;-82
2022/05/15 04:17:46;;;;;;;28.00;8.20;;;13.80;99.90;;;;;;7337925;19;109055;-82
2022/05/15 04:20:21;;;;;;;34.42;8.48;;;13.80;99.90;;;;;;7338659;19;107580;-82
2022/05/15 04:22:49;;;;;;;30.20;8.35;;;13.70;99.90;;;;;;7342947;19;108988;-82
2022/05/15 04:25:17;;;;;;;26.67;8.18;;;13.80;99.90;;;;;;7337449;19;108087;-82
2022/05/15 04:27:44;;;;;;;23.25;7.32;;;13.80;99.90;;;;;;7335913;19;108361;-82
2022/05/15 04:30:15;;;;;;;28.15;8.00;;;13.80;99.90;;;;;;7337562;19;107940;-82
2022/05/15 04:32:42;;;;;;;31.60;8.38;;;13.80;99.90;;;;;;7337578;19;108051;-82
2022/05/15 04:35:10;;;;;;;35.45;8.00;;;13.90;99.90;;;;;;7338984;19;109061;-82
2022/05/15 04:37:41;;;;;;;27.73;7.95;;;13.90;99.90;;;;;;7338941;19;107914;-82
2022/05/15 04:40:09;;;;;;;26.35;7.88;;;13.90;99.90;;;;;;7337447;19;107587;-82
2022/05/15 04:42:37;;;;;;;30.20;8.13;;;13.90;99.90;;;;;;7338246;19;108869;-82
2022/05/15 04:45:04;;;;;;;21.80;7.70;;;13.90;99.90;;;;;;7351472;19;108074;-82
2022/05/15 04:47:32;;;;;;;29.45;7.70;;;13.90;99.90;;;;;;7341771;19;109104;-82
2022/05/15 04:49:59;;;;;;;24.20;7.93;;;13.90;99.90;;;;;;7344108;19;107942;-82
2022/05/15 04:52:27;;;;;;;31.80;7.82;;;14.00;99.90;;;;;;7345650;19;109865;-82
2022/05/15 04:54:54;;;;;;;36.33;7.95;;;14.10;99.90;;;;;;7343816;19;108936;-82
2022/05/15 04:57:21;;;;;;;33.35;8.07;;;14.10;99.90;;;;;;7344954;19;108025;-82
2022/05/15 04:59:48;;;;;;;31.00;8.55;;;14.20;99.90;;;;;;7344189;19;107594;-82
2022/05/15 05:02:15;;;;;;;29.88;8.98;;;14.20;99.90;;;;;;7343081;19;109237;-82
2022/05/15 05:04:42;;;;;;;33.25;8.85;;;14.20;99.90;;;;;;7348647;19;108028;-82
2022/05/15 05:07:09;;;;;;;30.52;8.55;;;14.20;99.90;;;;;;7342326;19;108476;-82
2022/05/15 05:09:36;;;;;;;29.27;8.88;;;14.20;99.90;;;;;;7342983;19;108400;-82
2022/05/15 05:12:04;;;;;;;29.73;8.73;;;14.20;99.90;;;;;;7344562;19;108284;-82
2022/05/15 05:14:31;;;;;;;31.80;8.65;;;14.30;99.90;;;;;;7345175;19;109411;-82
2022/05/15 05:16:58;;;;;;;26.42;8.57;;;14.40;99.90;;;;;;7343725;19;108106;-82
2022/05/15 05:19:25;;;;;;;40.50;8.73;;;14.60;99.90;;;;;;7344586;19;108298;-83
2022/05/15 05:21:52;;;;;;;28.73;8.80;;;14.70;99.90;;;;;;7342208;19;110297;-82
2022/05/15 05:24:19;;;;;;;26.63;8.00;;;14.80;99.90;;;;;;7344230;19;108362;-82
2022/05/15 05:26:47;;;;;;;35.28;9.35;;;14.90;99.90;;;;;;7348265;19;108794;-82
2022/05/15 05:29:14;;;;;;;25.23;8.90;;;14.90;99.90;;;;;;7345122;19;107974;-82
2022/05/15 05:31:46;;;;;;;36.22;9.52;;;15.00;99.90;;;;;;7344988;19;108660;-82
2022/05/15 05:34:13;;;;;;;29.70;8.35;;;15.10;99.90;;;;;;7342013;19;109257;-82
2022/05/15 05:36:41;;;;;;;28.20;8.93;;;15.20;99.90;;;;;;7342176;19;108267;-82
2022/05/15 05:39:08;;;;;;;32.80;9.38;;;15.20;99.90;;;;;;7339193;19;107861;-82
2022/05/15 05:41:35;;;;;;;31.23;9.57;;;15.30;99.90;;;;;;7342057;19;109006;-82
2022/05/15 05:44:02;;;;;;;30.02;9.80;;;15.30;99.90;;;;;;7343823;19;108259;-82
2022/05/15 05:46:29;;;;;;;21.85;9.38;;;15.40;99.90;;;;;;7339551;19;108276;-82
2022/05/15 05:48:57;;;;;;;28.75;9.05;;;15.40;99.90;;;;;;7349058;19;108941;-82
2022/05/15 05:51:25;;;;;;;29.92;9.75;;;15.50;99.90;;;;;;7342995;19;112008;-83
2022/05/15 05:53:52;;;;;;;29.48;9.68;;;15.60;99.90;;;;;;7343699;19;108883;-82
2022/05/15 05:56:19;;;;;;;25.48;9.68;;;15.60;99.90;;;;;;7341386;19;107726;-82
2022/05/15 05:58:48;;;;;;;30.70;10.02;;;15.60;99.90;;;;;;7343234;19;107798;-82
2022/05/15 06:01:15;;;;;;;26.50;9.65;;;15.60;99.90;;;;;;7339578;19;110937;-82
2022/05/15 06:06:28;;;;;;;25.60;9.57;;;15.60;99.90;;;;;;7342203;19;108087;-82
2022/05/15 06:08:55;;;;;;;38.40;9.95;;;15.70;99.90;;;;;;7341626;19;109266;-82
2022/05/15 06:11:22;;;;;;;45.15;10.20;;;15.90;99.90;;;;;;7346190;19;112470;-82
2022/05/15 06:13:49;;;;;;;21.83;9.27;;;16.00;99.90;;;;;;7339316;19;110358;-83
2022/05/15 06:16:18;;;;;;;31.42;10.65;;;16.10;99.90;;;;;;7341079;19;111575;-82
2022/05/15 06:18:46;;;;;;;25.15;10.00;;;16.10;99.90;;;;;;7337480;19;115852;-83
2022/05/15 06:21:14;;;;;;;32.58;10.57;;;16.20;99.90;;;;;;7338263;19;111655;-82
2022/05/15 06:23:42;;;;;;;31.27;10.02;;;16.30;99.90;;;;;;7340190;19;111868;-83
2022/05/15 06:26:09;;;;;;;49.03;10.88;;;16.30;99.90;;;;;;7338428;19;111211;-82
2022/05/15 06:28:36;;;;;;;28.90;10.32;;;16.40;99.90;;;;;;7338950;19;110948;-83
2022/05/15 06:31:04;;;;;;;23.88;9.93;;;16.50;99.90;;;;;;7339343;19;111209;-82
2022/05/15 06:33:31;;;;;;;25.75;10.18;;;16.70;99.90;;;;;;7347726;19;109644;-83
2022/05/15 06:35:59;;;;;;;24.98;9.85;;;16.80;99.90;;;;;;7338695;19;111733;-82
2022/05/15 06:38:26;;;;;;;40.83;10.52;;;16.90;99.90;;;;;;7341346;19;112287;-83
2022/05/15 06:40:54;;;;;;;23.33;9.20;;;17.00;99.90;;;;;;7336642;19;110874;-82
2022/05/15 06:43:20;;;;;;;20.73;8.73;;;17.20;99.90;;;;;;7340700;19;111932;-83
2022/05/15 06:45:48;;;;;;;36.20;10.73;;;17.30;99.90;;;;;;7341878;19;107309;-83
2022/05/15 06:48:16;;;;;;;36.88;10.02;;;17.30;99.90;;;;;;7336402;19;110642;-83
2022/05/15 06:50:43;;;;;;;20.65;9.50;;;17.60;99.90;;;;;;7338739;19;110530;-82
2022/05/15 06:53:12;;;;;;;21.35;9.25;;;17.70;99.90;;;;;;7342600;19;108557;-82
2022/05/15 06:57:28;;;;;;;25.60;9.63;;;17.70;99.70;;;;;;7346941;19;108999;-82
2022/05/15 06:58:30;;;;;;;22.95;9.77;;;17.70;99.70;;;;;;7342445;19;108240;-83
2022/05/15 07:00:57;;;;;;;23.00;9.32;;;17.90;99.90;;;;;;7341685;19;108975;-83
2022/05/15 07:03:24;;;;;;;22.30;9.35;;;18.10;99.90;;;;;;7339142;19;107775;-83
2022/05/15 07:05:51;;;;;;;23.45;9.35;;;18.10;99.00;;;;;;7340879;19;110992;-83
2022/05/15 07:08:18;;;;;;;24.65;9.90;;;18.20;99.60;;;;;;7337164;19;108235;-83
2022/05/15 07:10:45;;;;;;;19.58;8.75;;;18.40;99.50;;;;;;7340103;19;108384;-83
2022/05/15 07:13:13;;;;;;;20.42;8.55;;;18.60;99.10;;;;;;7340749;19;109028;-83
2022/05/15 07:15:41;;;;;;;20.58;8.63;;;18.70;98.60;;;;;;7344617;19;108260;-83
2022/05/15 07:18:08;;;;;;;23.67;8.55;;;18.80;98.70;;;;;;7339307;19;107532;-83
2022/05/15 07:20:36;;;;;;;22.75;8.75;;;18.90;98.60;;;;;;7339711;19;111005;-83
2022/05/15 07:23:03;;;;;;;23.88;8.02;;;19.00;98.40;;;;;;7339962;19;107707;-85
2022/05/15 07:25:30;;;;;;;22.70;8.20;;;19.10;98.10;;;;;;7340387;19;108055;-84
2022/05/15 07:27:57;;;;;;;31.75;8.15;;;19.30;97.80;;;;;;7337505;19;109426;-85
2022/05/15 07:30:24;;;;;;;24.55;7.90;;;19.50;97.60;;;;;;7341200;19;107386;-86
2022/05/15 07:32:52;;;;;;;21.70;7.80;;;19.60;97.80;;;;;;7340122;19;108669;-86
2022/05/15 07:35:20;;;;;;;21.17;7.95;;;19.70;97.10;;;;;;7340798;19;109616;-85
2022/05/15 07:37:53;;;;;;;21.38;7.40;;;19.90;97.40;;;;;;7345322;19;110694;-83
2022/05/15 07:40:21;;;;;;;26.08;7.55;;;19.90;97.10;;;;;;7340958;19;109397;-84
2022/05/15 07:42:48;;;;;;;16.50;6.85;;;20.10;97.00;;;;;;7337240;19;109624;-83
2022/05/15 07:45:19;;;;;;;16.05;5.82;;;20.20;96.20;;;;;;7340907;19;108221;-84
2022/05/15 07:47:46;;;;;;;31.95;7.57;;;20.30;96.50;;;;;;7338884;19;109477;-84
2022/05/15 07:50:15;;;;;;;24.50;7.05;;;20.40;96.20;;;;;;7340460;19;110547;-84
2022/05/15 07:52:43;;;;;;;39.35;7.10;;;20.60;96.20;;;;;;7339806;19;107991;-85
2022/05/15 07:55:11;;;;;;;28.00;6.93;;;20.60;95.60;;;;;;7338721;19;111597;-84
2022/05/15 07:57:38;;;;;;;28.50;6.40;;;20.80;95.30;;;;;;7337296;19;108165;-85
2022/05/15 08:00:09;;;;;;;23.10;6.07;;;20.90;94.80;;;;;;7345120;19;108248;-83
2022/05/15 08:02:36;;;;;;;16.00;5.38;;;21.00;95.20;;;;;;7340244;19;108319;-84
2022/05/15 08:08:00;;;;;;;16.33;5.70;;;21.10;94.60;;;;;;7339631;19;108828;-84
2022/05/15 08:10:33;;;;;;;25.13;5.93;;;21.30;94.30;;;;;;7341353;19;110576;-84
2022/05/15 08:13:01;;;;;;;29.23;5.88;;;21.40;94.30;;;;;;7340654;19;108745;-83
2022/05/15 08:15:28;;;;;;;30.67;5.32;;;21.50;94.10;;;;;;7340356;19;108654;-83
2022/05/15 08:17:56;;;;;;;20.52;5.40;;;21.60;93.70;;;;;;7339668;19;108067;-84
2022/05/15 08:25:54;;;;;;;15.82;4.63;;;21.80;92.60;;;;;;7340761;19;108873;-84
2022/05/15 08:28:21;;;;;;;16.65;4.65;;;21.90;92.90;;;;;;7335455;19;112403;-83
2022/05/15 08:30:53;;;;;;;27.75;4.72;;;22.00;92.80;;;;;;7339235;19;111424;-83
2022/05/15 08:33:20;;;;;;;15.38;4.03;;;22.20;92.20;;;;;;7340589;19;108551;-83
2022/05/15 08:35:48;;;;;;;15.50;3.53;;;22.30;92.10;;;;;;7340713;19;108720;-83
2022/05/15 08:38:15;;;;;;;12.18;4.28;;;22.40;92.00;;;;;;7339193;19;108106;-83
2022/05/15 08:40:50;;;;;;;27.65;4.13;;;22.50;91.80;;;;;;7340515;19;108817;-83
2022/05/15 08:43:21;;;;;;;22.38;4.20;;;22.60;91.10;;;;;;7340963;19;111477;-83
2022/05/15 08:46:03;;;;;;;20.20;3.97;;;22.60;90.70;;;;;;7344884;19;107850;-82
2022/05/15 08:48:36;;;;;;;25.25;3.92;;;22.70;90.00;;;;;;7339302;19;109013;-82
2022/05/15 08:51:07;;;;;;;15.95;3.70;;;22.70;90.20;;;;;;7338982;19;108361;-83
2022/05/15 08:53:37;;;;;;;21.08;3.22;;;22.80;90.30;;;;;;7339987;19;108165;-83
2022/05/15 08:56:08;;;;;;;27.38;3.47;;;22.90;89.50;;;;;;7340479;19;109181;-85
2022/05/15 08:58:47;;;;;;;15.15;2.90;;;23.00;89.60;;;;;;7340086;19;108331;-82
2022/05/15 09:01:21;;;;;;;16.92;3.15;;;23.10;88.50;;;;;;7336862;19;108639;-81
2022/05/15 09:03:48;;;;;;;21.17;3.13;;;23.20;87.70;;;;;;7337428;19;111476;-82
2022/05/15 09:06:28;;;;;;;28.33;3.30;;;23.40;87.60;;;;;;7339556;19;108788;-82
2022/05/15 09:09:24;;;;;;;17.23;2.67;;;23.40;86.10;;;;;;7341384;19;108090;-82
2022/05/15 09:12:23;;;;;;;18.83;2.75;;;23.60;87.30;;;;;;7338412;19;108219;-81
2022/05/15 09:15:11;;;;;;;5.85;2.15;;;23.60;84.80;;;;;;7336848;19;108150;-83
2022/05/15 09:17:51;;;;;;;7.80;2.20;;;23.70;82.10;;;;;;7337883;19;110123;-82
2022/05/15 09:20:25;;;;;;;8.75;2.38;;;23.90;81.30;;;;;;7339748;19;107985;-83
2022/05/15 09:23:02;;;;;;;19.02;2.53;;;24.00;80.70;;;;;;7338780;19;108450;-81
2022/05/15 09:25:33;;;;;;;8.13;1.92;;;24.10;79.60;;;;;;7337084;19;109222;-86
2022/05/15 09:28:07;;;;;;;17.88;2.45;;;24.10;79.70;;;;;;7336884;19;107801;-82
2022/05/15 09:30:38;;;;;;;11.70;2.17;;;24.20;79.50;;;;;;7345913;19;108484;-82
2022/05/15 09:33:06;;;;;;;9.88;2.53;;;24.30;78.20;;;;;;7345978;19;106991;-82
2022/05/15 09:35:38;;;;;;;13.27;2.10;;;24.40;79.20;;;;;;7345305;19;109869;-81
2022/05/15 09:43:52;;;;;;;7.40;1.88;;;24.50;75.00;;;;;;7344010;19;108916;-82
2022/05/15 09:46:21;;;;;;;12.57;2.25;;;24.60;75.10;;;;;;7343788;19;111964;-83
2022/05/15 09:48:51;;;;;;;11.13;1.90;;;24.70;73.80;;;;;;7341777;19;108510;-83
2022/05/15 09:51:35;;;;;;;19.55;2.60;;;24.80;73.10;;;;;;7344768;19;109696;-82
2022/05/15 09:54:02;;;;;;;16.65;2.72;;;24.90;74.70;;;;;;7349510;19;108942;-82
2022/05/15 09:56:35;;;;;;;15.73;2.80;;;25.00;75.30;;;;;;7344948;19;108652;-82
2022/05/15 09:59:05;;;;;;;21.10;2.28;;;25.00;73.50;;;;;;7342133;19;108937;-82
2022/05/15 10:01:37;;;;;;;11.80;1.88;;;25.10;74.00;;;;;;7345398;19;107497;-84
2022/05/15 10:04:19;;;;;;;7.30;1.58;;;25.10;73.90;;;;;;7344038;19;108046;-83
2022/05/15 10:06:53;;;;;;;10.27;2.00;;;25.20;73.30;;;;;;7345130;19;107933;-82
2022/05/15 10:09:33;;;;;;;9.43;2.00;;;25.30;70.80;;;;;;7341986;19;107089;-84
2022/05/15 10:12:13;;;;;;;12.90;2.22;;;25.20;71.80;;;;;;7342266;19;107166;-84
2022/05/15 10:14:48;;;;;;;15.40;1.90;;;25.30;71.60;;;;;;7344448;19;109280;-84
2022/05/15 10:17:16;;;;;;;19.73;1.95;;;25.40;71.50;;;;;;7349394;19;107524;-82
2022/05/15 10:19:49;;;;;;;8.95;1.85;;;25.50;71.30;;;;;;7343348;19;108858;-83
2022/05/15 10:22:30;;;;;;;18.10;2.10;;;25.60;70.10;;;;;;7344862;19;107932;-83
2022/05/15 10:25:49;;;;;;;8.60;2.00;;;25.50;70.70;;;;;;7345529;19;108280;-82
2022/05/15 10:28:29;;;;;;;16.67;1.88;;;25.60;69.80;;;;;;7341510;19;108962;-83
2022/05/15 10:31:11;;;;;;;14.60;2.13;;;25.70;71.30;;;;;;7344166;19;108320;-83
2022/05/15 10:33:41;;;;;;;6.10;2.20;;;25.80;69.60;;;;;;7344206;19;108370;-83
2022/05/15 10:36:27;;;;;;;6.45;1.70;;;25.80;69.10;;;;;;7344387;19;108878;-83
2022/05/15 10:39:14;;;;;;;11.70;1.80;;;25.80;69.60;;;;;;7345037;19;110931;-82
2022/05/15 10:42:01;;;;;;;11.43;1.60;;;26.00;70.00;;;;;;7349248;19;108242;-84
2022/05/15 10:44:52;;;;;;;6.55;1.77;;;26.10;70.30;;;;;;7340574;19;107727;-84
2022/05/15 10:47:28;;;;;;;18.45;2.50;;;26.20;66.80;;;;;;7341976;19;108792;-83
2022/05/15 10:50:05;;;;;;;8.27;1.45;;;26.20;67.20;;;;;;7341819;19;112453;-83
2022/05/15 10:52:53;;;;;;;19.37;1.90;;;26.30;67.30;;;;;;7344885;19;109000;-82
2022/05/15 10:59:00;;;;;;;6.22;1.60;;;26.40;66.40;;;;;;7342491;19;109204;-83
2022/05/15 11:01:35;;;;;;;7.20;1.50;;;26.50;66.80;;;;;;7340740;19;108445;-83
2022/05/15 11:04:14;;;;;;;5.32;1.20;;;26.70;65.20;;;;;;7342330;19;108631;-82
2022/05/15 11:06:44;;;;;;;4.97;1.30;;;26.70;64.80;;;;;;7345678;19;107858;-83
2022/05/15 11:09:45;;;;;;;11.18;1.63;;;26.80;65.20;;;;;;7341395;19;108489;-83
2022/05/15 11:12:59;;;;;;;10.07;1.75;;;26.90;62.90;;;;;;7343006;19;110883;-83
2022/05/15 11:15:44;;;;;;;9.25;1.70;;;26.90;63.50;;;;;;7340324;19;107718;-83
2022/05/15 11:18:29;;;;;;;13.38;1.90;;;26.90;63.90;;;;;;7342153;19;108233;-82
2022/05/15 11:21:05;;;;;;;10.07;2.30;;;26.80;60.80;;;;;;7342689;19;109284;-82
2022/05/15 11:23:43;;;;;;;10.27;1.63;;;26.80;64.90;;;;;;7340879;19;108267;-81
2022/05/15 11:26:23;;;;;;;24.02;2.72;;;26.90;64.10;;;;;;7341279;19;108607;-82
2022/05/15 11:29:05;;;;;;;4.53;1.30;;;27.00;64.20;;;;;;7339452;19;112461;-83
2022/05/15 11:31:44;;;;;;;5.70;1.33;;;27.10;63.80;;;;;;7345753;19;107453;-82
2022/05/15 11:34:11;;;;;;;9.75;1.52;;;27.30;63.70;;;;;;7341276;19;109317;-82
2022/05/15 11:36:42;;;;;;;7.07;1.58;;;27.20;61.70;;;;;;7341088;19;108318;-81
2022/05/15 11:39:11;;;;;;;10.50;1.60;;;27.30;63.50;;;;;;7341442;19;108126;-82
2022/05/15 11:41:39;;;;;;;4.80;1.63;;;27.50;63.30;;;;;;7341790;19;109110;-83
2022/05/15 11:44:17;;;;;;;10.82;1.70;;;27.60;63.50;;;;;;7340700;19;107948;-83
2022/05/15 11:46:47;;;;;;;9.07;1.83;;;27.80;61.90;;;;;;7340183;19;108767;-83
2022/05/15 11:49:36;;;;;;;5.60;1.83;;;27.90;61.80;;;;;;7340787;19;109411;-83
2022/05/15 11:52:06;;;;;;;7.15;1.67;;;28.00;60.80;;;;;;7346685;19;108024;-84
2022/05/15 11:54:37;;;;;;;17.38;2.13;;;28.00;59.60;;;;;;7337804;19;112593;-81
2022/05/15 11:57:09;;;;;;;11.13;1.83;;;28.00;60.50;;;;;;7338526;19;107968;-83
2022/05/15 11:59:55;;;;;;;10.02;1.70;;;28.10;62.20;;;;;;7340370;19;108559;-81
2022/05/15 12:02:28;;;;;;;6.18;1.50;;;28.20;57.60;;;;;;7339268;19;109680;-81
2022/05/15 12:05:21;;;;;;;8.90;1.48;;;28.30;59.80;;;;;;7339844;19;108706;-83
2022/05/15 12:08:07;;;;;;;6.60;1.60;;;28.40;58.00;;;;;;7340315;19;107887;-81
2022/05/15 12:10:34;;;;;;;9.87;1.60;;;28.50;58.10;;;;;;7336931;19;109220;-83
2022/05/15 12:13:04;;;;;;;4.28;1.50;;;28.60;59.00;;;;;;7339159;19;108301;-82
2022/05/15 12:15:46;;;;;;;13.57;1.75;;;28.80;56.90;;;;;;7341666;19;109655;-83
2022/05/15 12:18:28;;;;;;;13.50;1.70;;;28.60;57.60;;;;;;7339716;19;108273;-82
2022/05/15 12:20:56;;;;;;;6.75;1.45;;;28.70;57.30;;;;;;7337237;19;109046;-82
2022/05/15 12:23:32;;;;;;;11.77;2.25;;;28.70;56.90;;;;;;7336784;19;107978;-83
2022/05/15 12:26:07;;;;;;;10.45;1.77;;;28.80;57.10;;;;;;7337977;19;107911;-82
2022/05/15 12:28:55;;;;;;;10.48;1.80;;;29.00;57.00;;;;;;7337779;19;108063;-81
2022/05/15 12:31:46;;;;;;;8.23;1.67;;;29.10;57.30;;;;;;7337569;19;109391;-84
2022/05/15 12:34:32;;;;;;;14.65;1.90;;;29.20;57.00;;;;;;7339708;19;107672;-83
2022/05/15 12:37:06;;;;;;;38.85;2.97;;;29.30;56.80;;;;;;7338855;19;108577;-84
2022/05/15 12:39:46;;;;;;;11.00;1.65;;;29.50;56.40;;;;;;7343030;19;108582;-84
2022/05/15 12:42:21;;;;;;;12.23;1.58;;;29.50;55.60;;;;;;7340626;19;107682;-85
2022/05/15 12:45:05;;;;;;;8.77;2.17;;;29.60;55.50;;;;;;7340408;19;109524;-84
2022/05/15 12:47:33;;;;;;;9.50;1.40;;;29.80;55.70;;;;;;7340417;19;111387;-85
2022/05/15 12:50:09;;;;;;;4.30;1.48;;;29.90;55.10;;;;;;7336514;19;108491;-84
2022/05/15 12:52:36;;;;;;;12.95;2.03;;;30.00;53.90;;;;;;7340141;19;108869;-84
2022/05/15 12:55:08;;;;;;;13.77;1.98;;;30.20;53.90;;;;;;7337162;19;107128;-85
2022/05/15 12:57:46;;;;;;;6.50;1.50;;;30.30;53.70;;;;;;7337798;19;108830;-85
2022/05/15 13:00:18;;;;;;;5.93;1.70;;;30.30;52.90;;;;;;7337583;19;111752;-85
2022/05/15 13:02:47;;;;;;;11.55;1.67;;;30.40;56.70;;;;;;7342278;19;110815;-84
2022/05/15 13:05:30;;;;;;;9.13;1.73;;;30.60;53.90;;;;;;7340698;19;107849;-85
2022/05/15 13:08:05;;;;;;;4.05;1.60;;;30.70;52.70;;;;;;7345354;19;107573;-84
2022/05/15 13:10:34;;;;;;;12.88;2.17;;;30.50;51.20;;;;;;7345404;19;108297;-85
2022/05/15 13:13:22;;;;;;;8.45;1.50;;;30.50;53.00;;;;;;7346511;19;110151;-86